createdAt,value
2023-03-04T00:00:10.118Z,100721.97
2023-03-04T00:02:38.532Z,100728.34
2023-03-04T00:05:08.400Z,100711.16
2023-03-04T00:07:36.704Z,100719.84
2023-03-04T00:10:06.557Z,100724.44
2023-03-04T00:12:36.225Z,100723.78
2023-03-04T00:15:04.980Z,100726.38
2023-03-04T00:17:33.267Z,100725.75
2023-03-04T00:20:01.600Z,100728.53
2023-03-04T00:22:29.934Z,100724.47
2023-03-04T00:24:58.266Z,100723.78
2023-03-04T00:27:26.587Z,100728.38
2023-03-04T00:29:56.813Z,100725.09
2023-03-04T00:32:25.213Z,100722.63
2023-03-04T00:34:53.648Z,100722.16
2023-03-04T00:37:21.975Z,100730.00
2023-03-04T00:39:51.863Z,100730.19
2023-03-04T00:42:20.187Z,100731.16
2023-03-04T00:44:49.661Z,100738.34
2023-03-04T00:47:19.396Z,100729.88
2023-03-04T00:49:47.692Z,100736.06
2023-03-04T00:52:16.119Z,100733.63
2023-03-04T00:54:44.476Z,100740.66
2023-03-04T00:57:12.791Z,100743.59
2023-03-04T00:59:43.742Z,100741.31
2023-03-04T01:02:12.381Z,100733.44
2023-03-04T01:04:43.010Z,100735.44
2023-03-04T01:07:11.409Z,100732.16
2023-03-04T01:09:40.284Z,100738.38
2023-03-04T01:12:09.756Z,100733.13
2023-03-04T01:14:38.859Z,100733.44
2023-03-04T01:17:07.252Z,100720.50
2023-03-04T01:19:35.573Z,100732.78
2023-03-04T01:22:05.436Z,100737.38
2023-03-04T01:24:33.816Z,100739.31
2023-03-04T01:27:02.180Z,100738.69
2023-03-04T01:29:30.509Z,100729.19
2023-03-04T01:31:58.912Z,100718.91
2023-03-04T01:35:08.553Z,100727.25
2023-03-04T01:37:38.333Z,100720.53
2023-03-04T01:40:08.220Z,100721.66
2023-03-04T01:42:37.773Z,100719.72
2023-03-04T01:45:12.015Z,100713.97
2023-03-04T01:47:40.392Z,100714.13
2023-03-04T01:50:19.402Z,100703.84
2023-03-04T01:52:49.267Z,100710.88
2023-03-04T01:55:20.094Z,100706.63
2023-03-04T01:57:49.953Z,100711.19
2023-03-04T02:00:31.991Z,100699.41
2023-03-04T02:03:03.527Z,100705.63
2023-03-04T02:05:32.234Z,100706.47
2023-03-04T02:08:02.661Z,100699.75
2023-03-04T02:10:31.342Z,100700.88
2023-03-04T02:13:01.078Z,100701.84
2023-03-04T02:15:30.363Z,100691.56
2023-03-04T02:17:58.901Z,100687.31
2023-03-04T02:20:43.659Z,100691.09
2023-03-04T02:23:19.968Z,100687.78
2023-03-04T02:26:00.738Z,100685.34
2023-03-04T02:28:30.588Z,100690.72
2023-03-04T02:30:58.928Z,100696.13
2023-03-04T02:33:28.545Z,100676.34
2023-03-04T02:35:56.915Z,100686.97
2023-03-04T02:38:25.348Z,100681.75
2023-03-04T02:40:56.606Z,100679.28
2023-03-04T02:43:24.986Z,100683.06
2023-03-04T02:45:55.233Z,100685.81
2023-03-04T02:48:25.135Z,100680.75
2023-03-04T02:50:55.655Z,100680.09
2023-03-04T02:53:25.465Z,100678.44
2023-03-04T02:55:54.679Z,100681.38
2023-03-04T02:58:24.953Z,100671.91
2023-03-04T03:00:54.757Z,100666.03
2023-03-04T03:03:23.317Z,100667.81
2023-03-04T03:05:51.741Z,100671.56
2023-03-04T03:08:20.024Z,100674.16
2023-03-04T03:10:48.558Z,100671.72
2023-03-04T03:13:16.920Z,100678.06
2023-03-04T03:15:45.514Z,100676.59
2023-03-04T03:18:15.240Z,100677.41
2023-03-04T03:20:44.027Z,100672.31
2023-03-04T03:23:12.506Z,100672.63
2023-03-04T03:25:40.796Z,100668.41
2023-03-04T03:28:09.156Z,100667.91
2023-03-04T03:30:39.333Z,100673.13
2023-03-04T03:33:08.214Z,100670.81
2023-03-04T03:35:39.130Z,100667.41
2023-03-04T03:38:07.556Z,100671.81
2023-03-04T03:40:35.864Z,100671.00
2023-03-04T03:43:04.389Z,100676.38
2023-03-04T03:45:32.761Z,100665.91
2023-03-04T03:48:01.155Z,100673.09
2023-03-04T03:50:29.600Z,100670.31
2023-03-04T03:52:59.334Z,100673.91
2023-03-04T03:55:28.043Z,100684.38
2023-03-04T03:57:56.411Z,100672.31
2023-03-04T04:00:24.991Z,100676.72
2023-03-04T04:02:55.011Z,100671.47
2023-03-04T04:05:23.323Z,100673.09
2023-03-04T04:07:53.765Z,100681.09
2023-03-04T04:10:23.903Z,100671.47
2023-03-04T04:12:52.248Z,100672.44
2023-03-04T04:15:20.815Z,100671.47
2023-03-04T04:17:49.116Z,100667.06
2023-03-04T04:20:18.113Z,100663.47
2023-03-04T04:22:46.412Z,100665.28
2023-03-04T04:25:14.726Z,100663.47
2023-03-04T04:27:44.397Z,100664.28
2023-03-04T04:30:13.955Z,100675.41
2023-03-04T04:32:42.306Z,100668.38
2023-03-04T04:35:11.212Z,100662.34
2023-03-04T04:37:39.669Z,100673.44
2023-03-04T04:40:09.738Z,100667.56
2023-03-04T04:42:38.039Z,100671.81
2023-03-04T04:45:10.081Z,100670.81
2023-03-04T04:47:38.424Z,100672.50
2023-03-04T04:50:07.542Z,100666.59
2023-03-04T04:52:35.978Z,100668.22
2023-03-04T04:55:05.007Z,100657.75
2023-03-04T04:57:34.482Z,100665.47
2023-03-04T05:00:03.378Z,100668.88
2023-03-04T05:02:36.334Z,100673.28
2023-03-04T05:05:05.458Z,100667.25
2023-03-04T05:07:35.210Z,100662.03
2023-03-04T05:10:04.150Z,100671.63
2023-03-04T05:12:32.459Z,100664.66
2023-03-04T05:15:00.798Z,100669.88
2023-03-04T05:17:29.100Z,100666.28
2023-03-04T05:19:58.793Z,100662.84
2023-03-04T05:22:27.090Z,100657.63
2023-03-04T05:24:55.511Z,100667.91
2023-03-04T05:27:23.822Z,100667.91
2023-03-04T05:29:52.192Z,100667.75
2023-03-04T05:32:20.523Z,100668.56
2023-03-04T05:34:48.881Z,100667.59
2023-03-04T05:37:18.583Z,100659.75
2023-03-04T05:39:46.885Z,100655.34
2023-03-04T05:42:15.164Z,100656.16
2023-03-04T05:44:43.442Z,100662.03
2023-03-04T05:47:11.772Z,100656.00
2023-03-04T05:49:41.125Z,100654.22
2023-03-04T05:52:09.468Z,100658.44
2023-03-04T05:54:39.161Z,100654.22
2023-03-04T05:57:07.519Z,100654.22
2023-03-04T05:59:35.820Z,100656.66
2023-03-04T06:02:04.140Z,100655.84
2023-03-04T06:04:32.609Z,100660.91
2023-03-04T06:07:00.911Z,100666.97
2023-03-04T06:09:29.208Z,100672.00
2023-03-04T06:11:58.924Z,100676.25
2023-03-04T06:14:27.379Z,100677.06
2023-03-04T06:16:55.775Z,100674.47
2023-03-04T06:19:24.135Z,100683.00
2023-03-04T06:21:52.465Z,100683.00
2023-03-04T06:24:21.080Z,100689.84
2023-03-04T06:26:49.468Z,100695.06
2023-03-04T06:29:19.155Z,100696.75
2023-03-04T06:31:47.544Z,100693.13
2023-03-04T06:34:16.047Z,100695.56
2023-03-04T06:36:44.390Z,100701.63
2023-03-04T06:39:12.779Z,100696.25
2023-03-04T06:41:41.208Z,100697.88
2023-03-04T06:44:09.729Z,100693.47
2023-03-04T06:46:39.534Z,100703.78
2023-03-04T06:49:07.867Z,100701.97
2023-03-04T06:51:36.265Z,100708.84
2023-03-04T06:54:04.829Z,100702.63
2023-03-04T06:56:33.410Z,100709.50
2023-03-04T06:59:01.717Z,100704.28
2023-03-04T07:01:30.857Z,100709.19
2023-03-04T07:04:00.614Z,100709.03
2023-03-04T07:06:30.034Z,100709.84
2023-03-04T07:08:59.469Z,100717.53
2023-03-04T07:11:28.203Z,100703.47
2023-03-04T07:13:57.038Z,100718.19
2023-03-04T07:16:25.576Z,100714.56
2023-03-04T07:18:53.955Z,100725.53
2023-03-04T07:21:23.716Z,100716.22
2023-03-04T07:23:52.106Z,100728.00
2023-03-04T07:26:20.496Z,100735.66
2023-03-04T07:28:49.812Z,100725.88
2023-03-04T07:31:24.065Z,100727.50
2023-03-04T07:33:52.904Z,100741.41
2023-03-04T07:36:21.219Z,100743.19
2023-03-04T07:38:52.182Z,100736.16
2023-03-04T07:41:20.522Z,100747.31
2023-03-04T07:43:49.040Z,100744.50
2023-03-04T07:46:17.851Z,100738.47
2023-03-04T07:48:46.498Z,100741.59
2023-03-04T07:51:17.493Z,100739.97
2023-03-04T07:53:48.476Z,100745.81
2023-03-04T07:56:21.134Z,100750.09
2023-03-04T07:58:49.871Z,100747.31
2023-03-04T08:01:20.551Z,100749.75
2023-03-04T08:03:48.894Z,100748.63
2023-03-04T08:06:19.910Z,100751.91
2023-03-04T08:08:48.695Z,100749.13
2023-03-04T08:11:21.029Z,100755.03
2023-03-04T08:13:50.246Z,100748.00
2023-03-04T08:16:20.426Z,100746.19
2023-03-04T08:18:51.422Z,100754.69
2023-03-04T08:21:22.839Z,100756.34
2023-03-04T08:23:52.689Z,100751.75
2023-03-04T08:26:26.658Z,100753.41
2023-03-04T08:28:56.468Z,100755.66
2023-03-04T08:31:25.374Z,100765.16
2023-03-04T08:33:53.795Z,100756.16
2023-03-04T08:36:22.589Z,100750.78
2023-03-04T08:38:50.962Z,100748.00
2023-03-04T08:41:19.374Z,100750.28
2023-03-04T08:43:49.011Z,100752.09
2023-03-04T08:46:17.457Z,100753.41
2023-03-04T08:48:46.020Z,100756.69
2023-03-04T08:51:17.044Z,100752.09
2023-03-04T08:53:46.189Z,100755.19
2023-03-04T08:56:15.600Z,100759.47
2023-03-04T08:58:44.113Z,100754.88
2023-03-04T09:01:15.490Z,100750.31
2023-03-04T09:03:44.556Z,100750.13
2023-03-04T09:06:17.323Z,100754.22
2023-03-04T09:08:46.754Z,100756.69
2023-03-04T09:11:15.538Z,100756.34
2023-03-04T09:13:44.146Z,100756.03
2023-03-04T09:16:16.016Z,100764.53
2023-03-04T09:18:44.859Z,100754.72
2023-03-04T09:21:13.243Z,100753.72
2023-03-04T09:23:41.590Z,100763.56
2023-03-04T09:26:20.652Z,100762.88
2023-03-04T09:28:52.569Z,100762.41
2023-03-04T09:31:23.128Z,100753.75
2023-03-04T09:33:51.772Z,100759.28
2023-03-04T09:36:20.779Z,100756.50
2023-03-04T09:38:49.329Z,100764.03
2023-03-04T09:41:21.503Z,100756.84
2023-03-04T09:43:51.999Z,100757.47
2023-03-04T09:46:30.851Z,100756.34
2023-03-04T09:48:59.468Z,100755.34
2023-03-04T09:51:46.668Z,100751.41
2023-03-04T09:54:28.653Z,100752.88
2023-03-04T09:57:14.334Z,100753.38
2023-03-04T09:59:50.976Z,100754.03
2023-03-04T10:02:33.990Z,100752.84
2023-03-04T10:05:07.356Z,100755.00
2023-03-04T10:07:39.986Z,100751.22
2023-03-04T10:10:15.320Z,100756.94
2023-03-04T10:12:48.260Z,100761.84
2023-03-04T10:15:28.467Z,100753.47
2023-03-04T10:18:07.468Z,100759.19
2023-03-04T10:20:52.142Z,100753.81
2023-03-04T10:23:24.835Z,100753.47
2023-03-04T10:25:54.852Z,100751.47
2023-03-04T10:28:27.318Z,100751.00
2023-03-04T10:31:03.788Z,100755.06
2023-03-04T10:33:36.493Z,100748.84
2023-03-04T10:36:07.669Z,100751.13
2023-03-04T10:38:38.710Z,100755.22
2023-03-04T10:41:14.921Z,100754.22
2023-03-04T10:43:45.250Z,100751.25
2023-03-04T10:46:14.639Z,100749.31
2023-03-04T10:48:45.204Z,100746.34
2023-03-04T10:51:20.497Z,100747.97
2023-03-04T10:53:51.046Z,100745.00
2023-03-04T10:56:38.959Z,100735.34
2023-03-04T10:59:46.161Z,100729.75
2023-03-04T11:02:27.981Z,100725.00
2023-03-04T11:05:08.958Z,100729.91
2023-03-04T11:07:54.611Z,100725.94
2023-03-04T11:10:27.332Z,100728.84
2023-03-04T11:13:02.732Z,100717.22
2023-03-04T11:15:32.407Z,100720.94
2023-03-04T11:18:04.507Z,100712.56
2023-03-04T11:20:38.063Z,100712.19
2023-03-04T11:23:12.625Z,100716.28
2023-03-04T11:25:45.499Z,100714.97
2023-03-04T11:28:21.031Z,100707.91
2023-03-04T11:30:54.691Z,100697.09
2023-03-04T11:33:29.760Z,100696.75
2023-03-04T11:36:14.274Z,100697.22
2023-03-04T11:38:46.220Z,100695.88
2023-03-04T11:41:19.295Z,100692.72
2023-03-04T11:43:48.633Z,100697.63
2023-03-04T11:46:46.086Z,100686.97
2023-03-04T11:49:57.355Z,100690.84
2023-03-04T11:53:06.025Z,100686.06
2023-03-04T11:55:42.472Z,100681.44
2023-03-04T11:58:39.452Z,100681.91
2023-03-04T12:01:11.191Z,100682.38
2023-03-04T12:04:09.738Z,100680.59
2023-03-04T12:06:52.170Z,100676.63
2023-03-04T12:09:41.616Z,100678.06
2023-03-04T12:12:31.252Z,100671.84
2023-03-04T12:15:10.946Z,100667.41
2023-03-04T12:18:22.238Z,100669.19
2023-03-04T12:21:06.578Z,100661.13
2023-03-04T12:24:04.418Z,100667.84
2023-03-04T12:26:40.512Z,100663.41
2023-03-04T12:29:17.090Z,100659.25
2023-03-04T12:31:47.723Z,100658.88
2023-03-04T12:34:54.436Z,100649.19
2023-03-04T12:37:39.277Z,100665.41
2023-03-04T12:40:28.492Z,100658.19
2023-03-04T12:43:15.041Z,100654.56
2023-03-04T12:45:52.442Z,100655.81
2023-03-04T12:48:33.132Z,100654.66
2023-03-04T12:51:30.437Z,100649.41
2023-03-04T12:54:14.418Z,100645.78
2023-03-04T12:56:48.838Z,100650.06
2023-03-04T12:59:21.764Z,100643.59
2023-03-04T13:01:58.554Z,100640.00
2023-03-04T13:04:41.337Z,100638.81
2023-03-04T13:07:18.306Z,100629.94
2023-03-04T13:09:54.701Z,100643.69
2023-03-04T13:12:24.795Z,100630.56
2023-03-04T13:15:29.078Z,100628.94
2023-03-04T13:17:58.566Z,100628.75
2023-03-04T13:20:38.342Z,100630.56
2023-03-04T13:23:27.444Z,100627.78
2023-03-04T13:26:21.600Z,100622.53
2023-03-04T13:28:56.826Z,100623.97
2023-03-04T13:31:28.180Z,100624.59
2023-03-04T13:34:03.347Z,100615.72
2023-03-04T13:36:59.141Z,100616.38
2023-03-04T13:39:35.795Z,100609.28
2023-03-04T13:42:23.980Z,100598.59
2023-03-04T13:45:02.127Z,100609.75
2023-03-04T13:47:49.682Z,100604.50
2023-03-04T13:50:31.770Z,100593.97
2023-03-04T13:53:23.835Z,100596.41
2023-03-04T13:56:11.896Z,100586.72
2023-03-04T13:58:41.020Z,100589.19
2023-03-04T14:01:27.072Z,100576.19
2023-03-04T14:03:57.303Z,100575.22
2023-03-04T14:06:28.211Z,100575.84
2023-03-04T14:08:58.090Z,100578.31
2023-03-04T14:11:31.572Z,100584.38
2023-03-04T14:14:04.597Z,100580.72
2023-03-04T14:16:40.180Z,100578.91
2023-03-04T14:19:18.503Z,100581.53
2023-03-04T14:21:47.502Z,100573.50
2023-03-04T14:24:18.938Z,100569.88
2023-03-04T14:26:48.190Z,100568.69
2023-03-04T14:29:26.070Z,100560.81
2023-03-04T14:31:55.490Z,100559.97
2023-03-04T14:34:32.093Z,100565.06
2023-03-04T14:37:00.594Z,100563.03
2023-03-04T14:39:35.773Z,100556.97
2023-03-04T14:42:11.601Z,100555.00
2023-03-04T14:44:44.573Z,100558.63
2023-03-04T14:47:20.867Z,100561.88
2023-03-04T14:49:51.416Z,100562.50
2023-03-04T14:52:36.135Z,100549.38
2023-03-04T14:55:19.782Z,100542.09
2023-03-04T14:57:51.421Z,100542.09
2023-03-04T15:00:31.920Z,100529.75
2023-03-04T15:03:03.178Z,100519.91
2023-03-04T15:05:34.474Z,100520.72
2023-03-04T15:08:06.933Z,100521.34
2023-03-04T15:10:38.411Z,100518.53
2023-03-04T15:13:10.555Z,100513.63
2023-03-04T15:15:42.841Z,100511.81
2023-03-04T15:18:30.263Z,100509.19
2023-03-04T15:21:02.635Z,100515.72
2023-03-04T15:23:33.598Z,100518.16
2023-03-04T15:26:04.761Z,100507.44
2023-03-04T15:28:37.100Z,100511.72
2023-03-04T15:31:06.088Z,100516.97
2023-03-04T15:33:34.984Z,100513.13
2023-03-04T15:36:05.869Z,100511.34
2023-03-04T15:38:34.286Z,100519.84
2023-03-04T15:41:03.170Z,100511.97
2023-03-04T15:43:31.560Z,100518.03
2023-03-04T15:45:59.855Z,100516.03
2023-03-04T15:48:28.203Z,100512.59
2023-03-04T15:50:59.021Z,100506.34
2023-03-04T15:53:34.697Z,100508.97
2023-03-04T15:56:03.861Z,100506.34
2023-03-04T15:58:35.181Z,100508.75
2023-03-04T16:01:03.939Z,100498.25
2023-03-04T16:03:32.438Z,100489.75
2023-03-04T16:06:00.808Z,100491.16
2023-03-04T16:08:30.553Z,100486.91
2023-03-04T16:11:00.050Z,100481.84
2023-03-04T16:13:28.423Z,100489.75
2023-03-04T16:15:56.797Z,100485.50
2023-03-04T16:18:25.216Z,100493.38
2023-03-04T16:20:53.787Z,100486.31
2023-03-04T16:23:25.108Z,100491.56
2023-03-04T16:25:56.995Z,100489.75
2023-03-04T16:28:25.370Z,100481.06
2023-03-04T16:30:53.801Z,100488.75
2023-03-04T16:33:22.161Z,100495.00
2023-03-04T16:35:51.813Z,100493.19
2023-03-04T16:38:26.113Z,100491.38
2023-03-04T16:40:57.175Z,100494.81
2023-03-04T16:43:26.446Z,100496.63
2023-03-04T16:45:54.856Z,100490.75
2023-03-04T16:48:23.205Z,100498.66
2023-03-04T16:50:51.668Z,100494.19
2023-03-04T16:53:33.552Z,100485.66
2023-03-04T16:56:08.235Z,100497.00
2023-03-04T16:58:36.540Z,100495.38
2023-03-04T17:01:06.203Z,100487.50
2023-03-04T17:03:34.586Z,100482.44
2023-03-04T17:06:02.991Z,100497.38
2023-03-04T17:08:31.330Z,100491.28
2023-03-04T17:10:59.687Z,100484.41
2023-03-04T17:13:29.431Z,100488.06
2023-03-04T17:16:02.303Z,100495.94
2023-03-04T17:18:31.066Z,100488.06
2023-03-04T17:21:04.660Z,100490.84
2023-03-04T17:23:33.102Z,100490.84
2023-03-04T17:26:02.020Z,100492.69
2023-03-04T17:28:32.100Z,100501.56
2023-03-04T17:31:00.612Z,100496.13
2023-03-04T17:33:29.075Z,100505.81
2023-03-04T17:35:58.368Z,100502.38
2023-03-04T17:38:26.754Z,100501.75
2023-03-04T17:40:56.509Z,100501.75
2023-03-04T17:43:24.898Z,100506.19
2023-03-04T17:46:04.969Z,100493.41
2023-03-04T17:48:33.933Z,100494.06
2023-03-04T17:51:02.709Z,100504.56
2023-03-04T17:53:31.449Z,100498.66
2023-03-04T17:56:03.018Z,100496.25
2023-03-04T17:58:33.850Z,100490.16
2023-03-04T18:01:06.706Z,100488.56
2023-03-04T18:03:35.229Z,100492.81
2023-03-04T18:06:03.679Z,100487.72
2023-03-04T18:08:32.027Z,100484.09
2023-03-04T18:11:00.557Z,100491.78
2023-03-04T18:13:28.894Z,100486.75
2023-03-04T18:15:57.429Z,100486.75
2023-03-04T18:18:27.351Z,100480.66
2023-03-04T18:20:59.954Z,100484.28
2023-03-04T18:23:29.560Z,100478.22
2023-03-04T18:25:58.529Z,100479.22
2023-03-04T18:28:27.195Z,100475.78
2023-03-04T18:30:57.074Z,100465.44
2023-03-04T18:33:26.821Z,100475.78
2023-03-04T18:36:00.140Z,100468.06
2023-03-04T18:38:29.884Z,100462.00
2023-03-04T18:41:00.239Z,100473.53
2023-03-04T18:43:28.917Z,100462.00
2023-03-04T18:46:06.241Z,100467.25
2023-03-04T18:48:40.851Z,100466.44
2023-03-04T18:51:09.236Z,100470.09
2023-03-04T18:53:37.647Z,100470.09
2023-03-04T18:56:12.575Z,100469.28
2023-03-04T18:58:42.660Z,100469.06
2023-03-04T19:01:12.253Z,100467.25
2023-03-04T19:03:43.546Z,100460.56
2023-03-04T19:06:12.360Z,100468.06
2023-03-04T19:08:40.786Z,100468.88
2023-03-04T19:11:09.198Z,100460.38
2023-03-04T19:13:37.851Z,100463.63
2023-03-04T19:16:07.229Z,100472.94
2023-03-04T19:18:35.790Z,100463.63
2023-03-04T19:21:06.076Z,100461.63
2023-03-04T19:23:34.541Z,100462.81
2023-03-04T19:26:03.686Z,100460.00
2023-03-04T19:28:32.136Z,100464.47
2023-03-04T19:31:05.351Z,100459.19
2023-03-04T19:33:36.310Z,100469.72
2023-03-04T19:36:08.535Z,100468.88
2023-03-04T19:38:37.561Z,100469.72
2023-03-04T19:41:11.387Z,100466.25
2023-03-04T19:43:39.917Z,100468.88
2023-03-04T19:46:09.820Z,100460.00
2023-03-04T19:48:39.397Z,100449.50
2023-03-04T19:51:18.021Z,100441.63
2023-03-04T19:53:47.037Z,100450.31
2023-03-04T19:56:16.195Z,100461.84
2023-03-04T19:58:47.112Z,100453.94
2023-03-04T20:01:25.861Z,100459.38
2023-03-04T20:03:54.769Z,100449.88
2023-03-04T20:06:26.851Z,100452.50
2023-03-04T20:08:58.145Z,100453.31
2023-03-04T20:11:27.459Z,100449.66
2023-03-04T20:13:58.416Z,100458.34
2023-03-04T20:16:27.312Z,100454.13
2023-03-04T20:18:57.931Z,100452.28
2023-03-04T20:21:29.688Z,100450.69
2023-03-04T20:24:00.712Z,100449.66
2023-03-04T20:26:30.221Z,100441.97
2023-03-04T20:28:59.079Z,100443.81
2023-03-04T20:31:31.337Z,100452.13
2023-03-04T20:34:01.074Z,100456.56
2023-03-04T20:36:32.147Z,100457.38
2023-03-04T20:39:03.271Z,100458.34
2023-03-04T20:41:34.725Z,100462.81
2023-03-04T20:44:03.166Z,100466.25
2023-03-04T20:46:38.198Z,100458.34
2023-03-04T20:49:09.457Z,100454.75
2023-03-04T20:51:39.939Z,100452.13
2023-03-04T20:54:09.390Z,100446.88
2023-03-04T20:56:38.664Z,100451.13
2023-03-04T20:59:09.984Z,100447.69
2023-03-04T21:01:41.562Z,100455.56
2023-03-04T21:04:10.104Z,100447.47
2023-03-04T21:06:40.610Z,100455.19
2023-03-04T21:09:13.147Z,100445.66
2023-03-04T21:11:42.608Z,100446.50
2023-03-04T21:14:15.742Z,100436.97
2023-03-04T21:16:44.450Z,100443.88
2023-03-04T21:19:18.017Z,100436.00
2023-03-04T21:21:49.756Z,100442.22
2023-03-04T21:24:20.728Z,100437.97
2023-03-04T21:26:49.521Z,100442.22
2023-03-04T21:29:21.086Z,100436.97
2023-03-04T21:31:53.120Z,100440.59
2023-03-04T21:34:24.001Z,100431.91
2023-03-04T21:36:53.742Z,100424.03
2023-03-04T21:39:24.977Z,100432.72
2023-03-04T21:41:54.527Z,100432.91
2023-03-04T21:44:28.469Z,100432.72
2023-03-04T21:47:02.802Z,100435.56
2023-03-04T21:49:31.388Z,100437.97
2023-03-04T21:52:01.189Z,100430.91
2023-03-04T21:54:29.602Z,100430.09
2023-03-04T21:56:58.027Z,100424.84
2023-03-04T21:59:26.425Z,100428.28
2023-03-04T22:01:55.738Z,100430.09
2023-03-04T22:04:24.154Z,100423.03
2023-03-04T22:06:52.554Z,100424.03
2023-03-04T22:09:22.390Z,100414.53
2023-03-04T22:11:50.866Z,100416.94
2023-03-04T22:14:19.263Z,100413.50
2023-03-04T22:16:55.483Z,100423.81
2023-03-04T22:19:25.752Z,100410.06
2023-03-04T22:21:54.802Z,100414.31
2023-03-04T22:24:24.539Z,100409.06
2023-03-04T22:26:52.940Z,100412.50
2023-03-04T22:29:21.360Z,100421.19
2023-03-04T22:31:49.865Z,100409.06
2023-03-04T22:34:18.714Z,100400.38
2023-03-04T22:36:49.383Z,100409.06
2023-03-04T22:39:20.306Z,100407.44
2023-03-04T22:41:50.225Z,100397.09
2023-03-04T22:44:19.022Z,100403.81
2023-03-04T22:46:47.679Z,100410.69
2023-03-04T22:49:16.397Z,100386.44
2023-03-04T22:51:46.152Z,100395.94
2023-03-04T22:54:16.461Z,100385.41
2023-03-04T22:56:45.810Z,100394.31
2023-03-04T22:59:15.813Z,100395.13
2023-03-04T23:01:44.197Z,100397.53
2023-03-04T23:04:12.567Z,100402.81
2023-03-04T23:06:41.109Z,100400.16
2023-03-04T23:09:09.503Z,100400.16
2023-03-04T23:11:39.510Z,100389.66
2023-03-04T23:14:11.558Z,100390.66
2023-03-04T23:16:44.277Z,100380.38
2023-03-04T23:19:15.174Z,100394.09
2023-03-04T23:21:44.162Z,100393.09
2023-03-04T23:24:13.504Z,100389.66
2023-03-04T23:26:43.760Z,100377.53
2023-03-04T23:29:16.234Z,100384.41
2023-03-04T23:31:45.949Z,100391.31
2023-03-04T23:34:14.739Z,100378.34
2023-03-04T23:36:43.958Z,100386.22
2023-03-04T23:39:13.397Z,100380.97
2023-03-04T23:41:41.734Z,100381.97
2023-03-04T23:44:11.791Z,100369.66
2023-03-04T23:46:40.397Z,100374.91
2023-03-04T23:49:14.187Z,100379.16
2023-03-04T23:51:44.323Z,100375.91
2023-03-04T23:54:13.263Z,100374.09
2023-03-04T23:56:41.936Z,100373.28
2023-03-04T23:59:11.897Z,100368.84
